createdAt,value
2022-09-23T03:21:10.926Z,17.13
2022-09-23T03:23:42.094Z,16.42
2022-09-23T03:26:14.241Z,15.80
2022-09-23T03:28:44.315Z,16.88
2022-09-23T03:31:13.946Z,17.50
2022-09-23T03:33:47.633Z,15.77
2022-09-23T03:36:40.167Z,15.77
2022-09-23T03:39:12.651Z,18.13
2022-09-23T03:41:45.163Z,14.52
2022-09-23T03:44:13.331Z,14.85
2022-09-23T03:46:44.139Z,20.95
2022-09-23T03:49:17.174Z,15.82
2022-09-23T03:51:46.633Z,20.58
2022-09-23T03:54:14.626Z,15.80
2022-09-23T03:56:42.862Z,18.10
2022-09-23T03:59:10.910Z,16.92
2022-09-23T04:01:39.104Z,16.67
2022-09-23T04:04:07.459Z,18.92
2022-09-23T04:06:35.698Z,15.75
2022-09-23T04:09:05.350Z,17.80
2022-09-23T04:11:33.432Z,17.23
2022-09-23T04:14:01.628Z,23.27
2022-09-23T04:16:29.721Z,17.40
2022-09-23T04:18:57.809Z,20.52
2022-09-23T04:21:26.370Z,19.77
2022-09-23T04:23:54.399Z,23.85
2022-09-23T04:26:23.851Z,21.77
2022-09-23T04:28:52.121Z,19.50
2022-09-23T04:31:20.336Z,21.83
2022-09-23T04:33:48.435Z,21.15
2022-09-23T04:36:16.632Z,21.70
2022-09-23T04:38:45.420Z,19.70
2022-09-23T04:41:13.957Z,17.90
2022-09-23T04:43:43.958Z,23.95
2022-09-23T04:46:13.928Z,19.40
2022-09-23T04:48:42.996Z,20.88
2022-09-23T04:51:13.166Z,25.20
2022-09-23T04:53:43.350Z,22.85
2022-09-23T04:56:16.125Z,23.08
2022-09-23T04:58:46.672Z,25.40
2022-09-23T05:01:17.471Z,23.30
2022-09-23T05:03:47.133Z,24.40
2022-09-23T05:06:16.516Z,20.95
2022-09-23T05:08:50.024Z,24.80
2022-09-23T05:11:18.737Z,22.83
2022-09-23T05:13:48.835Z,21.60
2022-09-23T05:16:17.675Z,19.38
2022-09-23T05:18:47.022Z,23.00
2022-09-23T05:21:18.311Z,23.13
2022-09-23T05:23:49.119Z,21.52
2022-09-23T05:26:17.268Z,18.83
2022-09-23T05:28:45.333Z,23.23
2022-09-23T05:31:20.016Z,21.80
2022-09-23T05:33:51.874Z,17.73
2022-09-23T05:36:21.426Z,20.13
2022-09-23T05:38:50.888Z,19.10
2022-09-23T05:41:23.231Z,22.25
2022-09-23T05:43:51.903Z,20.77
2022-09-23T05:46:23.347Z,18.30
2022-09-23T05:48:52.306Z,19.58
2022-09-23T05:51:22.461Z,21.67
2022-09-23T05:53:52.832Z,20.23
2022-09-23T05:56:22.964Z,23.13
2022-09-23T05:58:52.066Z,20.40
2022-09-23T06:01:24.894Z,18.92
2022-09-23T06:03:53.856Z,22.95
2022-09-23T06:06:26.181Z,23.48
2022-09-23T06:08:56.012Z,26.25
2022-09-23T06:11:24.470Z,19.83
2022-09-23T06:13:56.352Z,14.32
2022-09-23T06:16:25.863Z,12.48
2022-09-23T06:18:54.145Z,9.98
2022-09-23T06:21:22.336Z,7.70
2022-09-23T06:23:54.216Z,5.80
2022-09-23T06:26:23.923Z,7.90
2022-09-23T06:28:51.989Z,9.68
2022-09-23T06:31:20.110Z,5.45
2022-09-23T06:33:54.274Z,8.20
2022-09-23T06:36:41.293Z,6.57
2022-09-23T06:39:11.015Z,4.93
2022-09-23T06:41:39.270Z,5.78
2022-09-23T06:44:13.222Z,7.28
2022-09-23T06:46:41.385Z,9.50
2022-09-23T06:49:13.409Z,5.63
2022-09-23T06:51:41.835Z,7.05
2022-09-23T06:54:11.237Z,16.13
2022-09-23T06:56:40.044Z,4.60
2022-09-23T06:59:10.907Z,8.13
2022-09-23T07:01:39.192Z,9.25
2022-09-23T07:04:08.174Z,5.70
2022-09-23T07:06:38.108Z,4.90
2022-09-23T07:09:07.972Z,7.45
2022-09-23T07:11:36.053Z,4.97
2022-09-23T07:14:04.342Z,7.03
2022-09-23T07:16:33.088Z,3.80
2022-09-23T07:19:01.125Z,4.60
2022-09-23T07:21:29.254Z,7.53
2022-09-23T07:23:58.963Z,9.48
2022-09-23T07:26:27.616Z,5.53
2022-09-23T07:28:56.826Z,3.22
2022-09-23T07:31:39.012Z,3.25
2022-09-23T07:34:09.948Z,6.15
2022-09-23T07:36:40.801Z,4.13
2022-09-23T07:39:13.355Z,7.60
2022-09-23T07:41:44.359Z,2.78
2022-09-23T07:44:12.847Z,2.85
2022-09-23T07:46:41.195Z,4.35
2022-09-23T07:49:10.682Z,4.13
2022-09-23T07:51:40.627Z,3.65
2022-09-23T07:54:13.236Z,3.72
2022-09-23T07:56:42.281Z,2.75
2022-09-23T07:59:15.546Z,11.20
2022-09-23T08:01:45.330Z,1.90
2022-09-23T08:04:17.163Z,4.43
2022-09-23T08:06:47.886Z,4.10
2022-09-23T08:09:21.554Z,3.55
2022-09-23T08:11:50.761Z,2.88
2022-09-23T08:14:19.120Z,2.75
2022-09-23T08:16:47.974Z,2.85
2022-09-23T08:19:16.384Z,1.08
2022-09-23T08:21:46.721Z,2.05
2022-09-23T08:24:18.241Z,1.35
2022-09-23T08:26:47.672Z,0.90
2022-09-23T08:29:17.764Z,2.53
2022-09-23T08:31:46.644Z,1.33
2022-09-23T08:34:14.684Z,2.40
2022-09-23T08:36:42.900Z,1.75
2022-09-23T08:39:15.096Z,4.45
2022-09-23T08:41:58.817Z,3.03
2022-09-23T08:44:33.448Z,1.33
2022-09-23T08:47:10.379Z,3.03
2022-09-23T08:49:52.894Z,2.83
2022-09-23T08:52:27.420Z,2.58
2022-09-23T08:54:55.732Z,25.30
2022-09-23T08:57:36.037Z,2.63
2022-09-23T09:00:05.376Z,18.48
2022-09-23T09:02:36.369Z,8.38
2022-09-23T09:05:10.479Z,0.98
2022-09-23T09:07:42.133Z,2.03
2022-09-23T09:10:19.595Z,1.83
2022-09-23T09:12:51.880Z,1.35
2022-09-23T09:15:24.611Z,1.35
2022-09-23T09:18:01.339Z,1.42
2022-09-23T09:20:39.747Z,1.88
2022-09-23T09:23:21.939Z,1.45
2022-09-23T09:25:52.147Z,1.92
2022-09-23T09:28:30.869Z,1.65
2022-09-23T09:31:02.636Z,0.60
2022-09-23T09:33:39.499Z,1.50
2022-09-23T09:36:16.328Z,0.90
2022-09-23T09:38:44.500Z,1.15
2022-09-23T09:41:17.099Z,1.70
2022-09-23T09:43:52.464Z,0.57
2022-09-23T09:46:45.228Z,1.30
2022-09-23T09:49:23.373Z,0.50
2022-09-23T09:52:13.502Z,0.95
2022-09-23T09:54:41.534Z,0.68
2022-09-23T09:57:33.693Z,2.80
2022-09-23T10:00:35.512Z,1.48
2022-09-23T10:03:08.551Z,1.10
2022-09-23T10:05:49.529Z,0.85
2022-09-23T10:08:26.084Z,1.17
2022-09-23T10:11:01.346Z,0.80
2022-09-23T10:13:30.828Z,1.10
2022-09-23T10:16:03.956Z,1.63
2022-09-23T10:18:35.937Z,1.05
2022-09-23T10:21:09.546Z,2.25
2022-09-23T10:23:42.652Z,1.17
2022-09-23T10:26:12.300Z,1.75
2022-09-23T10:28:48.962Z,3.25
2022-09-23T10:31:25.566Z,1.77
2022-09-23T10:33:57.297Z,1.77
2022-09-23T10:36:25.483Z,1.65
2022-09-23T10:39:17.317Z,1.20
2022-09-23T10:42:14.370Z,1.20
2022-09-23T10:45:15.284Z,1.10
2022-09-23T10:47:54.353Z,1.13
2022-09-23T10:50:36.870Z,1.45
2022-09-23T10:53:14.310Z,2.53
2022-09-23T10:55:59.718Z,0.93
2022-09-23T10:58:55.507Z,1.08
2022-09-23T11:01:34.840Z,1.38
2022-09-23T11:04:38.147Z,21.42
2022-09-23T11:07:20.749Z,2.60
2022-09-23T11:10:46.064Z,69.97
2022-09-23T11:13:27.946Z,11.32
2022-09-23T11:16:06.973Z,56.13
2022-09-23T11:18:59.159Z,2.83
2022-09-23T11:21:57.289Z,0.90
2022-09-23T11:24:58.212Z,1.92
2022-09-23T11:27:38.020Z,2.03
2022-09-23T11:30:14.219Z,7.90
2022-09-23T11:33:14.567Z,2.20
2022-09-23T11:35:49.211Z,0.75
2022-09-23T11:38:26.095Z,0.80
2022-09-23T11:40:58.322Z,1.15
2022-09-23T11:43:29.841Z,1.73
2022-09-23T11:46:01.749Z,8.88
2022-09-23T11:48:35.125Z,2.22
2022-09-23T11:51:07.953Z,0.85
2022-09-23T11:53:46.493Z,1.33
2022-09-23T11:56:33.575Z,1.20
2022-09-23T11:59:11.503Z,0.88
2022-09-23T12:01:46.682Z,14.90
2022-09-23T12:04:26.989Z,2.60
2022-09-23T12:07:01.621Z,1.30
2022-09-23T12:09:57.374Z,11.23
2022-09-23T12:12:32.699Z,0.98
2022-09-23T12:15:05.546Z,1.08
2022-09-23T12:18:11.881Z,1.08
2022-09-23T12:20:49.735Z,0.93
2022-09-23T12:23:37.718Z,1.58
2022-09-23T12:26:14.549Z,1.20
2022-09-23T12:28:45.446Z,1.13
2022-09-23T12:31:17.039Z,2.78
2022-09-23T12:33:50.518Z,1.17
2022-09-23T12:36:27.625Z,1.15
2022-09-23T12:39:02.815Z,2.00
2022-09-23T12:41:37.747Z,0.68
2022-09-23T12:44:29.443Z,4.05
2022-09-23T12:47:37.022Z,1.83
2022-09-23T12:50:55.311Z,1.20
2022-09-23T12:53:58.020Z,0.85
2022-09-23T12:56:45.699Z,1.17
2022-09-23T12:59:53.507Z,1.15
2022-09-23T13:02:33.002Z,1.73
2022-09-23T13:05:28.662Z,0.82
2022-09-23T13:08:01.338Z,1.80
2022-09-23T13:10:32.806Z,2.67
2022-09-23T13:13:02.561Z,6.72
2022-09-23T13:15:34.878Z,2.30
2022-09-23T13:18:24.742Z,0.88
2022-09-23T13:20:55.002Z,1.00
2022-09-23T13:23:25.323Z,1.45
2022-09-23T13:25:55.640Z,2.10
2022-09-23T13:28:31.732Z,0.90
2022-09-23T13:31:05.575Z,1.38
2022-09-23T13:33:42.682Z,2.17
2022-09-23T13:36:13.973Z,2.78
2022-09-23T13:38:42.634Z,1.23
2022-09-23T13:41:16.281Z,0.80
2022-09-23T13:43:46.937Z,0.70
2022-09-23T13:46:20.029Z,0.85
2022-09-23T13:48:51.673Z,3.75
2022-09-23T13:51:24.699Z,0.95
2022-09-23T13:53:55.261Z,3.05
2022-09-23T13:56:24.725Z,2.38
2022-09-23T13:58:53.368Z,1.10
2022-09-23T14:01:33.770Z,0.70
2022-09-23T14:04:03.166Z,2.05
2022-09-23T14:06:32.456Z,1.25
2022-09-23T14:09:03.459Z,1.40
2022-09-23T14:11:35.210Z,0.50
2022-09-23T14:14:07.943Z,11.07
2022-09-23T14:16:41.348Z,1.17
2022-09-23T14:19:18.175Z,5.75
2022-09-23T14:21:49.680Z,6.25
2022-09-23T14:24:20.075Z,7.72
2022-09-23T14:26:51.008Z,4.00
2022-09-23T14:29:24.415Z,1.42
2022-09-23T14:31:58.251Z,2.85
2022-09-23T14:34:48.201Z,4.60
2022-09-23T14:37:46.464Z,0.90
2022-09-23T14:40:17.979Z,1.48
2022-09-23T14:42:49.089Z,1.92
2022-09-23T14:45:22.998Z,1.38
2022-09-23T14:47:54.780Z,1.35
2022-09-23T14:50:39.378Z,1.25
2022-09-23T14:53:33.657Z,1.65
2022-09-23T14:56:17.670Z,4.50
2022-09-23T14:58:52.579Z,1.73
2022-09-23T15:01:40.379Z,2.22
2022-09-23T15:04:18.358Z,1.75
2022-09-23T15:06:52.391Z,5.45
2022-09-23T15:09:26.836Z,4.35
2022-09-23T15:11:59.091Z,5.38
2022-09-23T15:14:39.159Z,1.45
2022-09-23T15:17:15.710Z,4.13
2022-09-23T15:19:46.596Z,3.53
2022-09-23T15:22:16.685Z,3.95
2022-09-23T15:24:46.349Z,2.20
2022-09-23T15:27:34.246Z,0.93
2022-09-23T15:30:15.403Z,1.55
2022-09-23T15:32:44.461Z,1.50
2022-09-23T15:35:19.203Z,1.48
2022-09-23T15:37:49.535Z,4.82
2022-09-23T15:40:21.045Z,1.58
2022-09-23T15:42:51.643Z,1.55
2022-09-23T15:45:22.330Z,1.73
2022-09-23T15:47:52.328Z,3.10
2022-09-23T15:50:22.462Z,1.55
2022-09-23T15:52:50.585Z,2.28
2022-09-23T15:55:22.374Z,3.25
2022-09-23T15:57:50.929Z,1.55
2022-09-23T16:00:19.106Z,2.20
2022-09-23T16:02:50.208Z,2.28
2022-09-23T16:05:23.641Z,3.97
2022-09-23T16:07:53.450Z,1.40
2022-09-23T16:10:23.353Z,2.85
2022-09-23T16:12:54.856Z,3.03
2022-09-23T16:15:24.833Z,4.30
2022-09-23T16:17:53.192Z,3.33
2022-09-23T16:20:23.477Z,5.47
2022-09-23T16:22:55.649Z,6.20
2022-09-23T16:25:28.431Z,4.35
2022-09-23T16:27:57.328Z,4.95
2022-09-23T16:30:26.347Z,4.70
2022-09-23T16:32:54.522Z,9.10
2022-09-23T16:35:26.405Z,6.05
2022-09-23T16:37:55.872Z,7.05
2022-09-23T16:40:25.498Z,4.38
2022-09-23T16:42:55.116Z,5.35
2022-09-23T16:45:24.179Z,6.90
2022-09-23T16:47:54.361Z,4.95
2022-09-23T16:50:25.137Z,6.70
2022-09-23T16:52:55.239Z,5.93
2022-09-23T16:55:25.760Z,6.85
2022-09-23T16:57:54.745Z,9.45
2022-09-23T17:00:41.296Z,9.60
2022-09-23T17:03:28.823Z,10.00
2022-09-23T17:05:58.784Z,12.60
2022-09-23T17:08:27.104Z,11.48
2022-09-23T17:10:59.649Z,12.80
2022-09-23T17:13:28.634Z,16.17
2022-09-23T17:15:57.089Z,16.65
2022-09-23T17:18:25.578Z,13.80
2022-09-23T17:21:03.458Z,17.60
2022-09-23T17:23:33.502Z,15.20
2022-09-23T17:26:02.048Z,17.05
2022-09-23T17:28:30.634Z,15.68
2022-09-23T17:31:00.630Z,19.40
2022-09-23T17:33:30.653Z,23.08
2022-09-23T17:35:59.927Z,21.25
2022-09-23T17:38:29.780Z,21.17
2022-09-23T17:41:01.254Z,23.08
2022-09-23T17:43:30.281Z,25.60
2022-09-23T17:46:05.231Z,25.60
2022-09-23T17:48:35.600Z,24.90
2022-09-23T17:51:06.224Z,27.83
2022-09-23T17:53:37.689Z,26.17
2022-09-23T17:56:07.705Z,26.15
2022-09-23T17:58:37.824Z,28.65
2022-09-23T18:01:18.986Z,30.25
2022-09-23T18:03:49.693Z,21.52
2022-09-23T18:06:19.968Z,19.40
2022-09-23T18:08:51.481Z,23.98
2022-09-23T18:11:21.451Z,40.88
2022-09-23T18:13:51.440Z,26.48
2022-09-23T18:16:20.248Z,22.33
2022-09-23T18:18:52.299Z,19.92
2022-09-23T18:21:20.848Z,18.60
2022-09-23T18:23:51.367Z,14.60
2022-09-23T18:26:21.134Z,13.40
2022-09-23T18:28:49.474Z,13.60
2022-09-23T18:31:17.873Z,11.30
2022-09-23T18:33:51.367Z,9.48
2022-09-23T18:36:20.249Z,11.15
2022-09-23T18:38:50.845Z,8.73
2022-09-23T18:41:19.695Z,20.55
2022-09-23T18:43:56.056Z,15.23
2022-09-23T18:46:30.231Z,12.23
2022-09-23T18:49:17.338Z,22.27
2022-09-23T18:51:50.789Z,10.18
2022-09-23T18:54:20.598Z,10.73
2022-09-23T18:56:49.619Z,10.18
2022-09-23T18:59:21.750Z,9.10
2022-09-23T19:01:51.157Z,8.63
2022-09-23T19:04:21.700Z,10.02
2022-09-23T19:06:50.705Z,8.55
2022-09-23T19:09:21.190Z,10.85
2022-09-23T19:11:52.397Z,11.50
2022-09-23T19:14:42.516Z,10.48
2022-09-23T19:17:10.696Z,10.63
2022-09-23T19:19:39.355Z,12.02
2022-09-23T19:22:07.577Z,12.45
2022-09-23T19:24:37.204Z,11.82
2022-09-23T19:27:05.449Z,10.95
2022-09-23T19:29:33.588Z,16.80
2022-09-23T19:32:01.903Z,13.50
2022-09-23T19:34:30.854Z,11.15
2022-09-23T19:36:59.278Z,12.38
2022-09-23T19:39:31.725Z,9.70
2022-09-23T19:42:01.719Z,11.45
2022-09-23T19:44:29.863Z,10.68
2022-09-23T19:46:57.997Z,9.95
2022-09-23T19:49:26.611Z,11.90
2022-09-23T19:51:56.235Z,11.68
2022-09-23T19:54:27.772Z,11.57
2022-09-23T19:56:56.253Z,11.60
2022-09-23T19:59:26.738Z,11.80
2022-09-23T20:01:55.736Z,10.32
2022-09-23T20:04:23.859Z,9.27
2022-09-23T20:06:52.080Z,11.05
2022-09-23T20:09:20.787Z,9.80
2022-09-23T20:11:49.039Z,10.88
2022-09-23T20:14:17.347Z,9.23
2022-09-23T20:16:46.825Z,8.20
2022-09-23T20:19:15.168Z,9.38
2022-09-23T20:21:43.337Z,9.57
2022-09-23T20:24:12.472Z,8.80
2022-09-23T20:26:58.150Z,8.85
2022-09-23T20:29:26.622Z,8.20
2022-09-23T20:31:57.253Z,10.27
2022-09-23T20:34:26.263Z,12.48
2022-09-23T20:36:56.136Z,13.15
2022-09-23T20:39:24.428Z,11.73
2022-09-23T20:41:53.145Z,11.57
2022-09-23T20:44:21.243Z,10.77
2022-09-23T20:46:49.608Z,11.77
2022-09-23T20:49:19.766Z,10.20
2022-09-23T20:51:49.438Z,13.43
2022-09-23T20:54:19.208Z,14.00
2022-09-23T20:56:47.571Z,13.45
2022-09-23T20:59:17.752Z,12.45
2022-09-23T21:01:46.549Z,9.05
2022-09-23T21:04:14.635Z,9.90
2022-09-23T21:06:44.081Z,10.95
2022-09-23T21:09:12.093Z,12.13
2022-09-23T21:11:40.372Z,12.27
2022-09-23T21:14:08.640Z,12.57
2022-09-23T21:16:36.973Z,12.80
2022-09-23T21:19:07.455Z,12.45
2022-09-23T21:21:36.038Z,10.57
2022-09-23T21:24:40.100Z,14.70
2022-09-23T21:26:53.965Z,9.43
2022-09-23T21:29:22.010Z,10.43
2022-09-23T21:31:50.230Z,11.20
2022-09-23T21:34:18.323Z,10.10
2022-09-23T21:36:48.566Z,11.88
2022-09-23T21:39:17.943Z,10.23
2022-09-23T21:41:45.958Z,10.63
2022-09-23T21:44:14.165Z,10.98
2022-09-23T21:46:42.314Z,8.80
2022-09-23T21:49:10.635Z,9.45
2022-09-23T21:51:41.514Z,8.40
2022-09-23T21:54:13.635Z,9.75
2022-09-23T21:56:43.596Z,11.10
2022-09-23T21:59:12.005Z,10.13
2022-09-23T22:01:43.686Z,14.43
2022-09-23T22:04:15.709Z,9.40
2022-09-23T22:06:44.422Z,11.63
2022-09-23T22:09:15.212Z,11.65
2022-09-23T22:12:02.405Z,12.02
2022-09-23T22:14:31.022Z,9.57
2022-09-23T22:17:01.506Z,13.63
2022-09-23T22:19:35.036Z,11.48
2022-09-23T22:22:06.993Z,13.40
2022-09-23T22:24:35.158Z,12.45
2022-09-23T22:27:04.647Z,10.30
2022-09-23T22:29:50.095Z,12.65
2022-09-23T22:32:41.688Z,15.18
2022-09-23T22:35:11.870Z,16.45
2022-09-23T22:37:40.168Z,17.50
2022-09-23T22:40:10.674Z,18.45
2022-09-23T22:42:41.783Z,17.10
2022-09-23T22:45:11.479Z,16.70
2022-09-23T22:47:40.975Z,16.15
2022-09-23T22:50:11.443Z,14.60
2022-09-23T22:52:39.522Z,19.02
2022-09-23T22:55:08.351Z,22.75
2022-09-23T22:57:36.707Z,15.98
2022-09-23T23:00:07.509Z,14.50
2022-09-23T23:02:35.646Z,17.67
2022-09-23T23:05:03.696Z,20.30
2022-09-23T23:07:35.097Z,20.15
2022-09-23T23:10:04.765Z,20.95
